Time;durP1;ratioP1;P1;durP2;ratioP2;P2;SDS_P1;SDS_P2;PMS_P1;PMS_P2;Temp;Humidity;BMP_temperature;BMP_pressure;BME280_temperature;BME280_humidity;BME280_pressure;Samples;Min_cycle;Max_cycle;Signal;HPM_P1;HPM_P2
2022/08/05 00:01:41;;;;;;;0.68;0.20;;;;;;;11.10;100.00;100279.59;7394543;19;20035;-55
2022/08/05 00:04:07;;;;;;;3.83;1.17;;;;;;;11.08;100.00;100279.28;7395183;19;20031;-55
2022/08/05 00:06:33;;;;;;;0.30;0.20;;;;;;;11.02;100.00;100279.13;7396109;19;20014;-55
2022/08/05 00:09:00;;;;;;;1.42;0.52;;;;;;;10.98;100.00;100288.91;7398817;19;20010;-55
2022/08/05 00:11:27;;;;;;;1.08;0.57;;;;;;;10.95;100.00;100285.03;7394770;19;20371;-56
2022/08/05 00:13:53;;;;;;;0.52;0.40;;;;;;;10.90;100.00;100293.25;7394831;19;20023;-56
2022/08/05 00:16:19;;;;;;;1.95;1.00;;;;;;;10.89;100.00;100286.91;7395145;19;20007;-56
2022/08/05 00:18:48;;;;;;;0.43;0.43;;;;;;;10.92;100.00;100279.63;7393679;19;20086;-56
2022/08/05 00:21:16;;;;;;;0.82;0.82;;;;;;;10.91;100.00;100292.00;7394683;19;20014;-56
2022/08/05 00:23:44;;;;;;;0.38;0.38;;;;;;;10.90;100.00;100301.59;7394510;19;20354;-56
2022/08/05 00:26:11;;;;;;;0.20;0.10;;;;;;;10.88;100.00;100298.50;7395568;19;20118;-56
2022/08/05 00:28:37;;;;;;;0.85;0.43;;;;;;;10.86;100.00;100301.00;7395337;19;20015;-54
2022/08/05 00:31:04;;;;;;;0.82;0.82;;;;;;;10.80;100.00;100300.06;7394154;19;20014;-54
2022/08/05 00:33:32;;;;;;;0.73;0.57;;;;;;;10.78;100.00;100294.97;7393574;19;20017;-54
2022/08/05 00:35:59;;;;;;;0.50;0.50;;;;;;;10.84;100.00;100309.81;7392943;19;20544;-54
2022/08/05 00:38:25;;;;;;;1.27;0.45;;;;;;;10.86;100.00;100299.00;7391315;19;20022;-57
2022/08/05 00:40:57;;;;;;;3.97;0.60;;;;;;;10.90;100.00;100304.38;7391649;19;20447;-55
2022/08/05 00:43:24;;;;;;;0.55;0.50;;;;;;;10.87;100.00;100305.34;7391409;19;20016;-55
2022/08/05 00:45:50;;;;;;;3.50;0.98;;;;;;;10.89;100.00;100302.84;7392230;19;20015;-55
2022/08/05 00:48:18;;;;;;;0.40;0.28;;;;;;;10.92;100.00;100308.25;7393304;19;20011;-55
2022/08/05 00:50:47;;;;;;;1.63;0.30;;;;;;;10.92;100.00;100307.47;7393673;19;20396;-55
2022/08/05 00:53:16;;;;;;;0.30;0.30;;;;;;;10.98;100.00;100311.22;7393261;19;20006;-55
2022/08/05 00:55:42;;;;;;;1.10;0.88;;;;;;;11.03;100.00;100307.78;7393126;19;20567;-55
2022/08/05 00:58:10;;;;;;;0.20;0.20;;;;;;;11.07;100.00;100305.59;7391863;19;20015;-55
2022/08/05 01:00:36;;;;;;;0.50;0.50;;;;;;;11.10;100.00;100301.88;7393387;19;20018;-55
2022/08/05 01:03:02;;;;;;;0.40;0.40;;;;;;;11.12;100.00;100310.53;7390814;19;20360;-55
2022/08/05 01:05:29;;;;;;;0.30;0.30;;;;;;;11.14;100.00;100302.50;7392464;19;20510;-56
2022/08/05 01:07:55;;;;;;;0.75;0.43;;;;;;;11.16;100.00;100311.16;7397026;19;20011;-55
2022/08/05 01:10:28;;;;;;;0.38;0.38;;;;;;;11.16;100.00;100303.56;7392306;19;20018;-55
2022/08/05 01:13:02;;;;;;;0.30;0.30;;;;;;;11.13;100.00;100312.09;7395083;19;20039;-55
2022/08/05 01:15:35;;;;;;;0.38;0.38;;;;;;;11.10;100.00;100313.81;7392673;19;20018;-55
2022/08/05 01:18:11;;;;;;;3.20;0.50;;;;;;;11.12;100.00;100310.53;7395890;19;20010;-57
2022/08/05 01:21:06;;;;;;;0.25;0.25;;;;;;;11.10;100.00;100307.44;7392841;19;20015;-57
2022/08/05 01:23:58;;;;;;;0.30;0.30;;;;;;;11.14;100.00;100308.06;7392838;19;20018;-57
2022/08/05 01:26:53;;;;;;;0.30;0.20;;;;;;;11.15;100.00;100315.19;7390455;19;20018;-58
2022/08/05 01:29:25;;;;;;;0.45;0.45;;;;;;;11.14;100.00;100314.41;7392174;19;20048;-57
2022/08/05 01:31:57;;;;;;;0.80;0.50;;;;;;;11.15;100.00;100315.19;7391113;19;20011;-57
2022/08/05 01:34:29;;;;;;;0.50;0.30;;;;;;;11.16;100.00;100317.50;7390794;19;20066;-58
2022/08/05 01:37:10;;;;;;;2.33;0.43;;;;;;;11.22;100.00;100314.84;7394140;19;20018;-57
2022/08/05 01:39:39;;;;;;;0.30;0.30;;;;;;;11.27;100.00;100311.44;7391153;19;20039;-57
2022/08/05 01:42:07;;;;;;;0.35;0.35;;;;;;;11.33;100.00;100315.13;7393811;19;20011;-57
2022/08/05 01:44:34;;;;;;;0.52;0.47;;;;;;;11.39;100.00;100313.28;7390358;19;20041;-57
2022/08/05 01:47:01;;;;;;;0.47;0.47;;;;;;;11.42;100.00;100301.16;7393479;19;20014;-57
2022/08/05 01:49:29;;;;;;;0.32;0.32;;;;;;;11.44;100.00;100304.25;7389306;19;20820;-57
2022/08/05 01:51:58;;;;;;;5.05;0.73;;;;;;;11.39;100.00;100302.13;7391272;19;20039;-57
2022/08/05 01:54:32;;;;;;;5.15;1.00;;;;;;;11.43;100.00;100297.88;7390793;19;20370;-57
2022/08/05 01:57:00;;;;;;;0.75;0.57;;;;;;;11.42;100.00;100298.38;7392406;19;20813;-57
2022/08/05 01:59:28;;;;;;;0.38;0.30;;;;;;;11.40;100.00;100292.50;7391464;19;20018;-58
2022/08/05 02:01:56;;;;;;;0.30;0.30;;;;;;;11.40;100.00;100298.06;7391296;19;20013;-58
2022/08/05 02:04:25;;;;;;;1.95;0.20;;;;;;;11.34;100.00;100294.38;7390829;19;20035;-57
2022/08/05 02:06:51;;;;;;;0.82;0.50;;;;;;;11.31;100.00;100295.31;7392725;19;20133;-57
2022/08/05 02:09:17;;;;;;;2.47;1.02;;;;;;;11.35;100.00;100302.25;7395201;19;20019;-57
2022/08/05 02:11:55;;;;;;;0.47;0.38;;;;;;;11.34;100.00;100294.38;7392839;19;20026;-57
2022/08/05 02:14:36;;;;;;;4.78;1.20;;;;;;;11.35;100.00;100284.75;7390567;19;20011;-57
2022/08/05 02:17:22;;;;;;;0.38;0.38;;;;;;;11.34;100.00;100294.38;7391597;19;20482;-57
2022/08/05 02:19:54;;;;;;;0.52;0.43;;;;;;;11.31;100.00;100290.50;7391047;19;20038;-57
2022/08/05 02:22:32;;;;;;;0.60;0.45;;;;;;;11.32;100.00;100292.06;7391542;19;20010;-58
2022/08/05 02:25:13;;;;;;;0.45;0.45;;;;;;;11.35;100.00;100298.69;7389827;19;20019;-57
2022/08/05 02:27:40;;;;;;;0.65;0.65;;;;;;;11.35;100.00;100290.34;7392926;19;20049;-57
2022/08/05 02:30:09;;;;;;;2.65;0.63;;;;;;;11.38;100.00;100295.75;7390502;19;20014;-57
2022/08/05 02:32:38;;;;;;;1.15;0.30;;;;;;;11.41;100.00;100302.41;7390800;19;20014;-57
2022/08/05 02:35:08;;;;;;;1.00;0.60;;;;;;;11.42;100.00;100301.16;7390385;19;20022;-57
2022/08/05 02:37:37;;;;;;;0.10;0.10;;;;;;;11.42;100.00;100312.31;7393034;19;20011;-57
2022/08/05 02:40:05;;;;;;;0.30;0.30;;;;;;;11.37;100.00;100312.94;7390280;19;20479;-58
2022/08/05 02:42:33;;;;;;;0.73;0.50;;;;;;;11.36;100.00;100314.19;7393927;19;20022;-57
2022/08/05 02:45:00;;;;;;;0.50;0.50;;;;;;;11.34;100.00;100302.75;7390035;19;20040;-57
2022/08/05 02:47:29;;;;;;;1.20;0.52;;;;;;;11.30;100.00;100314.03;7391805;19;20018;-57
2022/08/05 02:49:56;;;;;;;1.15;0.50;;;;;;;11.22;100.00;100314.84;7389588;19;20010;-58
2022/08/05 02:52:23;;;;;;;3.35;0.90;;;;;;;11.18;100.00;100312.22;7389947;19;20752;-57
2022/08/05 02:54:50;;;;;;;0.28;0.22;;;;;;;11.20;100.00;100306.19;7389632;19;20018;-57
2022/08/05 02:57:20;;;;;;;3.58;0.50;;;;;;;11.15;100.00;100312.41;7391523;19;20383;-57
2022/08/05 02:59:48;;;;;;;0.70;0.43;;;;;;;11.14;100.00;100313.63;7388469;19;20018;-57
2022/08/05 03:02:19;;;;;;;0.20;0.20;;;;;;;11.09;100.00;100317.03;7388740;19;20083;-57
2022/08/05 03:04:47;;;;;;;0.22;0.22;;;;;;;11.10;100.00;100311.03;7388766;19;20079;-57
2022/08/05 03:07:14;;;;;;;0.30;0.30;;;;;;;11.09;100.00;100311.47;7391623;19;20028;-57
2022/08/05 03:09:43;;;;;;;0.30;0.30;;;;;;;11.08;100.00;100315.50;7390068;19;20010;-57
2022/08/05 03:12:09;;;;;;;1.10;0.82;;;;;;;11.03;100.00;100307.78;7391346;19;20017;-57
2022/08/05 03:14:35;;;;;;;0.75;0.57;;;;;;;10.94;100.00;100316.13;7389259;19;20039;-57
2022/08/05 03:17:01;;;;;;;1.15;0.40;;;;;;;10.87;100.00;100322.06;7391625;19;20018;-57
2022/08/05 03:19:27;;;;;;;1.15;0.73;;;;;;;10.79;100.00;100320.81;7389281;19;20021;-57
2022/08/05 03:21:53;;;;;;;4.63;0.98;;;;;;;10.68;100.00;100314.97;7387344;19;20015;-57
2022/08/05 03:24:20;;;;;;;1.00;0.40;;;;;;;10.63;100.00;100319.13;7388629;19;20015;-57
2022/08/05 03:26:46;;;;;;;0.60;0.60;;;;;;;10.47;100.00;100323.00;7395669;19;20011;-57
2022/08/05 03:29:13;;;;;;;0.75;0.73;;;;;;;10.46;100.00;100320.69;7395927;19;20018;-57
2022/08/05 03:31:40;;;;;;;0.70;0.70;;;;;;;10.44;100.00;100326.69;7395946;19;20363;-58
2022/08/05 03:34:07;;;;;;;0.55;0.55;;;;;;;10.40;100.00;100328.84;7395021;19;20018;-57
2022/08/05 03:36:33;;;;;;;1.40;0.65;;;;;;;10.38;100.00;100325.75;7395594;19;20014;-58
2022/08/05 03:39:06;;;;;;;1.20;0.57;;;;;;;10.39;100.00;100326.53;7395996;19;20479;-57
2022/08/05 03:41:33;;;;;;;0.50;0.50;;;;;;;10.36;100.00;100328.25;7397673;19;20025;-58
2022/08/05 03:43:59;;;;;;;0.60;0.60;;;;;;;10.34;100.00;100322.38;7394551;19;20015;-57
2022/08/05 03:46:25;;;;;;;0.57;0.50;;;;;;;10.32;100.00;100318.50;7396404;19;20110;-58
2022/08/05 03:48:51;;;;;;;1.00;0.82;;;;;;;10.30;100.00;100318.97;7395644;19;20010;-57
2022/08/05 03:51:28;;;;;;;0.35;0.35;;;;;;;10.27;100.00;100325.44;7395442;19;20007;-57
2022/08/05 03:54:08;;;;;;;0.20;0.20;;;;;;;10.26;100.00;100329.47;7395443;19;20100;-57
2022/08/05 03:56:44;;;;;;;0.30;0.30;;;;;;;10.23;100.00;100324.81;7397262;19;20015;-57
2022/08/05 03:59:21;;;;;;;0.32;0.32;;;;;;;10.25;100.00;100327.91;7395761;19;20019;-58
2022/08/05 04:01:49;;;;;;;0.50;0.50;;;;;;;10.25;100.00;100327.91;7395951;19;20042;-57
2022/08/05 04:04:18;;;;;;;0.35;0.35;;;;;;;10.24;100.00;100334.72;7394357;19;20015;-57
2022/08/05 04:06:45;;;;;;;0.75;0.35;;;;;;;10.25;100.00;100333.47;7396815;19;20107;-57
2022/08/05 04:09:13;;;;;;;0.80;0.65;;;;;;;10.23;100.00;100335.94;7399155;19;20010;-57
2022/08/05 04:11:39;;;;;;;1.75;0.88;;;;;;;10.21;100.00;100332.84;7396633;19;20014;-57
2022/08/05 04:14:06;;;;;;;1.05;0.60;;;;;;;10.25;100.00;100333.47;7393893;19;20032;-57
2022/08/05 04:16:35;;;;;;;1.08;0.77;;;;;;;10.25;100.00;100333.47;7395741;19;20014;-57
2022/08/05 04:19:03;;;;;;;9.63;0.55;;;;;;;10.28;100.00;100332.56;7395192;19;20045;-57
2022/08/05 04:21:29;;;;;;;0.50;0.50;;;;;;;10.29;100.00;100328.53;7395263;19;20435;-57
2022/08/05 04:23:57;;;;;;;4.65;1.35;;;;;;;10.33;100.00;100340.28;7393012;19;20014;-57
2022/08/05 04:26:24;;;;;;;0.50;0.50;;;;;;;10.37;100.00;100346.47;7395479;19;20034;-58
2022/08/05 04:28:50;;;;;;;2.97;0.90;;;;;;;10.44;100.00;100351.75;7394549;19;20007;-57
2022/08/05 04:31:16;;;;;;;0.38;0.38;;;;;;;10.48;100.00;100352.38;7394541;19;20043;-57
2022/08/05 04:33:42;;;;;;;0.73;0.40;;;;;;;10.53;100.00;100360.13;7394778;19;20014;-57
2022/08/05 04:36:09;;;;;;;0.40;0.40;;;;;;;10.57;100.00;100352.38;7395792;19;20017;-57
2022/08/05 04:38:36;;;;;;;2.38;1.02;;;;;;;10.58;100.00;100348.38;7388640;19;20018;-58
2022/08/05 04:41:02;;;;;;;0.20;0.20;;;;;;;10.62;100.00;100351.78;7392683;19;20014;-57
2022/08/05 04:43:28;;;;;;;0.43;0.38;;;;;;;10.63;100.00;100350.53;7394173;19;20014;-57
2022/08/05 04:45:54;;;;;;;0.28;0.28;;;;;;;10.66;100.00;100352.41;7394551;19;20011;-57
2022/08/05 04:48:21;;;;;;;0.93;0.63;;;;;;;10.68;100.00;100361.06;7394084;19;20006;-57
2022/08/05 04:50:48;;;;;;;0.30;0.22;;;;;;;10.70;100.00;100359.84;7394183;19;20511;-57
2022/08/05 04:53:16;;;;;;;2.20;0.35;;;;;;;10.74;100.00;100357.66;7393681;19;20011;-57
2022/08/05 04:55:44;;;;;;;0.45;0.45;;;;;;;10.76;100.00;100355.19;7393684;19;20014;-57
2022/08/05 04:58:12;;;;;;;1.38;0.55;;;;;;;10.77;100.00;100367.84;7389786;19;20011;-57
2022/08/05 05:00:39;;;;;;;8.80;0.85;;;;;;;10.81;100.00;100368.47;7391489;19;20010;-57
2022/08/05 05:03:07;;;;;;;0.55;0.47;;;;;;;10.89;100.00;100373.28;7392821;19;20369;-58
2022/08/05 05:05:34;;;;;;;0.68;0.40;;;;;;;10.98;100.00;100378.84;7392174;19;20011;-57
2022/08/05 05:08:02;;;;;;;0.57;0.52;;;;;;;11.08;100.00;100376.84;7397298;19;20018;-58
2022/08/05 05:10:37;;;;;;;0.30;0.30;;;;;;;11.19;100.00;100377.91;7393328;19;20014;-58
2022/08/05 05:13:03;;;;;;;1.88;0.50;;;;;;;11.24;100.00;100379.31;7392429;19;20017;-59
2022/08/05 05:15:30;;;;;;;0.40;0.35;;;;;;;11.33;100.00;100382.06;7392584;19;20027;-59
2022/08/05 05:17:56;;;;;;;0.38;0.38;;;;;;;11.38;100.00;100379.41;7395118;19;20447;-59
2022/08/05 05:20:22;;;;;;;1.27;0.63;;;;;;;11.45;100.00;100378.31;7391420;19;20015;-60
2022/08/05 05:22:49;;;;;;;1.85;0.40;;;;;;;11.52;100.00;100380.75;7392394;19;20387;-60
2022/08/05 05:25:15;;;;;;;1.75;0.50;;;;;;;11.58;100.00;100384.47;7391860;19;20015;-59
2022/08/05 05:27:41;;;;;;;0.52;0.52;;;;;;;11.65;100.00;100386.91;7396504;19;20492;-59
2022/08/05 05:30:08;;;;;;;0.30;0.30;;;;;;;11.70;100.00;100388.34;7392687;19;20011;-59
2022/08/05 05:32:34;;;;;;;2.05;0.65;;;;;;;11.76;100.00;100392.81;7392368;19;20066;-60
2022/08/05 05:35:00;;;;;;;0.10;0.10;;;;;;;11.81;100.00;100381.00;7390542;19;20633;-59
2022/08/05 05:37:26;;;;;;;0.75;0.40;;;;;;;11.88;100.00;100391.84;7393736;19;20475;-59
2022/08/05 05:39:52;;;;;;;1.55;0.50;;;;;;;11.90;100.00;100397.72;7391599;19;20007;-59
2022/08/05 05:42:19;;;;;;;5.22;1.05;;;;;;;11.85;100.00;100398.34;7395150;19;20010;-59
2022/08/05 05:44:45;;;;;;;0.30;0.30;;;;;;;11.86;100.00;100401.94;7392245;19;20015;-59
2022/08/05 05:47:11;;;;;;;0.30;0.30;;;;;;;11.85;100.00;100412.31;7394878;19;20099;-59
2022/08/05 05:49:37;;;;;;;0.55;0.52;;;;;;;11.86;100.00;100424.25;7390970;19;20062;-59
2022/08/05 05:52:03;;;;;;;0.28;0.25;;;;;;;11.85;100.00;100422.69;7391826;19;20013;-59
2022/08/05 05:54:29;;;;;;;0.90;0.50;;;;;;;11.88;100.00;100416.97;7390446;19;20050;-59
2022/08/05 05:56:55;;;;;;;0.40;0.30;;;;;;;11.94;100.00;100426.22;7391653;19;20037;-60
2022/08/05 05:59:23;;;;;;;0.40;0.20;;;;;;;12.01;100.00;100425.91;7391230;19;20049;-59
2022/08/05 06:01:49;;;;;;;0.88;0.43;;;;;;;12.09;100.00;100429.13;7390584;19;20017;-60
2022/08/05 06:04:15;;;;;;;1.02;0.68;;;;;;;12.12;100.00;100440.13;7391486;19;20017;-59
2022/08/05 06:06:43;;;;;;;0.30;0.30;;;;;;;12.14;100.00;100446.00;7393476;19;20034;-59
2022/08/05 06:09:10;;;;;;;0.65;0.38;;;;;;;12.18;100.00;100448.63;7394309;19;20011;-59
2022/08/05 06:11:36;;;;;;;1.27;0.38;;;;;;;12.17;100.00;100456.22;7392032;19;20743;-59
2022/08/05 06:14:02;;;;;;;0.20;0.20;;;;;;;12.22;100.00;100462.41;7390487;19;20011;-59
2022/08/05 06:16:28;;;;;;;1.85;0.40;;;;;;;12.27;100.00;100470.16;7391013;19;20019;-59
2022/08/05 06:18:54;;;;;;;0.82;0.17;;;;;;;12.27;100.00;100459.75;7388943;19;20023;-59
2022/08/05 06:21:20;;;;;;;0.77;0.40;;;;;;;12.28;100.00;100464.09;7389246;19;20014;-59
2022/08/05 06:23:47;;;;;;;1.33;0.55;;;;;;;12.35;100.00;100471.34;7388514;19;20022;-59
2022/08/05 06:26:13;;;;;;;0.10;0.10;;;;;;;12.34;100.00;100469.81;7389281;19;20044;-60
2022/08/05 06:28:39;;;;;;;1.20;0.75;;;;;;;12.39;100.00;100472.72;7389478;19;20014;-59
2022/08/05 06:31:05;;;;;;;0.20;0.20;;;;;;;12.41;100.00;100477.84;7388942;19;20041;-59
2022/08/05 06:33:31;;;;;;;0.73;0.47;;;;;;;12.43;100.00;100478.16;7387070;19;20034;-60
2022/08/05 06:35:58;;;;;;;1.63;0.70;;;;;;;12.47;100.00;100478.75;7388920;19;20011;-60
2022/08/05 06:38:24;;;;;;;1.13;0.50;;;;;;;12.55;100.00;100479.94;7388414;19;20032;-61
2022/08/05 06:40:50;;;;;;;1.35;0.52;;;;;;;12.54;100.00;100484.00;7389565;19;20062;-61
2022/08/05 06:43:16;;;;;;;3.30;0.52;;;;;;;12.46;100.00;100477.19;7391911;19;20092;-62
2022/08/05 06:45:42;;;;;;;0.88;0.35;;;;;;;12.44;100.00;100479.69;7390404;19;20485;-61
2022/08/05 06:48:09;;;;;;;0.10;0.10;;;;;;;12.44;100.00;100474.09;7389397;19;20021;-60
2022/08/05 06:50:35;;;;;;;1.10;0.30;;;;;;;12.43;100.00;100478.16;7391102;19;20023;-61
2022/08/05 06:53:01;;;;;;;0.52;0.45;;;;;;;12.43;100.00;100483.75;7392462;19;20026;-60
2022/08/05 06:55:28;;;;;;;0.45;0.38;;;;;;;12.44;100.00;100479.69;7392696;19;20003;-61
2022/08/05 06:57:54;;;;;;;0.73;0.30;;;;;;;12.43;100.00;100478.16;7390623;19;20458;-61
2022/08/05 07:00:20;;;;;;;0.30;0.30;;;;;;;12.50;100.00;100483.38;7390090;19;20702;-61
2022/08/05 07:02:46;;;;;;;0.40;0.30;;;;;;;12.58;100.00;100487.38;7392221;19;20015;-62
2022/08/05 07:05:13;;;;;;;4.28;0.35;;;;;;;12.52;100.00;100483.66;7391959;19;20006;-61
2022/08/05 07:07:39;;;;;;;0.55;0.52;;;;;;;12.44;100.00;100488.06;7390993;19;20010;-62
2022/08/05 07:10:07;;;;;;;0.47;0.40;;;;;;;12.36;100.00;100490.44;7391309;19;20430;-60
2022/08/05 07:18:04;;;;;;;0.20;0.13;;;;;;;12.21;100.00;100489.56;7390767;19;20021;-60
2022/08/05 07:20:30;;;;;;;0.38;0.28;;;;;;;12.21;100.00;100488.81;7391200;19;20014;-61
2022/08/05 07:22:56;;;;;;;0.40;0.38;;;;;;;12.32;100.00;100489.06;7391417;19;20011;-60
2022/08/05 07:25:23;;;;;;;5.35;0.82;;;;;;;12.55;100.00;100489.09;7391195;19;20014;-61
2022/08/05 07:27:51;;;;;;;0.30;0.30;;;;;;;12.79;100.00;100494.72;7390950;19;20003;-60
2022/08/05 07:30:18;;;;;;;0.20;0.20;;;;;;;12.94;100.00;100487.94;7388174;19;20011;-61
2022/08/05 07:32:44;;;;;;;0.82;0.20;;;;;;;12.95;100.00;100483.09;7391835;19;20025;-61
2022/08/05 07:35:12;;;;;;;0.63;0.30;;;;;;;12.97;100.00;100493.81;7392132;19;20022;-60
2022/08/05 07:37:39;;;;;;;2.00;1.00;;;;;;;13.02;100.00;100490.34;7390390;19;20433;-61
2022/08/05 07:40:06;;;;;;;1.33;0.52;;;;;;;13.28;100.00;100497.81;7391636;19;20010;-60
2022/08/05 07:42:33;;;;;;;0.88;0.70;;;;;;;13.62;100.00;100505.59;7389840;19;20010;-60
2022/08/05 07:44:59;;;;;;;1.08;0.45;;;;;;;13.86;100.00;100499.16;7387847;19;20047;-60
2022/08/05 07:47:26;;;;;;;1.30;0.45;;;;;;;13.94;100.00;100503.88;7390020;19;20014;-60
2022/08/05 07:49:52;;;;;;;0.52;0.52;;;;;;;14.11;100.00;100495.75;7387591;19;20011;-60
2022/08/05 07:52:19;;;;;;;0.50;0.50;;;;;;;14.25;100.00;100494.97;7387998;19;20035;-60
2022/08/05 07:54:46;;;;;;;2.83;1.00;;;;;;;14.33;100.00;100501.75;7388002;19;20010;-60
2022/08/05 07:57:13;;;;;;;0.52;0.32;;;;;;;14.42;100.00;100496.78;7390050;19;20094;-60
2022/08/05 07:59:39;;;;;;;1.45;0.75;;;;;;;14.44;100.00;100501.94;7387346;19;20514;-59
2022/08/05 08:02:08;;;;;;;3.03;0.43;;;;;;;14.36;100.00;100501.53;7388511;19;20014;-59
2022/08/05 08:04:34;;;;;;;0.68;0.50;;;;;;;14.21;100.00;100509.16;7387658;19;20010;-59
2022/08/05 08:07:00;;;;;;;0.73;0.20;;;;;;;14.08;100.00;100508.69;7390345;19;20010;-59
2022/08/05 08:09:26;;;;;;;1.30;0.57;;;;;;;14.12;100.00;100519.72;7391209;19;20006;-59
2022/08/05 08:11:53;;;;;;;1.13;0.40;;;;;;;14.16;100.00;100517.50;7391856;19;20014;-59
2022/08/05 08:14:19;;;;;;;1.00;0.35;;;;;;;14.23;100.00;100517.06;7394131;19;20022;-59
2022/08/05 08:16:45;;;;;;;1.67;0.65;;;;;;;14.35;100.00;100519.63;7396204;19;20011;-59
2022/08/05 08:19:11;;;;;;;1.27;0.60;;;;;;;14.42;100.00;100515.66;7393967;19;20023;-59
2022/08/05 08:21:37;;;;;;;0.95;0.52;;;;;;;14.35;100.00;100516.03;7394805;19;20352;-59
2022/08/05 08:24:04;;;;;;;1.67;0.43;;;;;;;14.27;100.00;100518.44;7394599;19;20031;-59
2022/08/05 08:26:31;;;;;;;1.83;1.00;;;;;;;14.20;100.00;100527.25;7395180;19;20082;-59
2022/08/05 08:28:58;;;;;;;1.92;0.63;;;;;;;14.35;100.00;100521.66;7393541;19;20006;-59
2022/08/05 08:31:24;;;;;;;1.38;0.57;;;;;;;14.30;100.00;100525.13;7394744;19;20070;-58
2022/08/05 08:33:51;;;;;;;3.05;0.70;;;;;;;14.57;100.00;100522.00;7393137;19;20006;-59
2022/08/05 08:36:18;;;;;;;4.95;0.75;;;;;;;14.67;100.00;100525.44;7394121;19;20017;-58
2022/08/05 08:38:44;;;;;;;1.65;0.55;;;;;;;14.87;100.00;100523.47;7391093;19;20011;-59
2022/08/05 08:41:13;;;;;;;2.90;0.82;;;;;;;14.97;100.00;100524.09;7394455;19;20019;-59
2022/08/05 08:43:40;;;;;;;1.98;0.52;;;;;;;15.13;100.00;100524.31;7393540;19;20007;-58
2022/08/05 08:46:06;;;;;;;0.68;0.50;;;;;;;15.49;100.00;100508.16;7394133;19;20455;-59
2022/08/05 08:48:34;;;;;;;1.13;0.75;;;;;;;15.68;100.00;100518.59;7392963;19;20610;-59
2022/08/05 08:51:02;;;;;;;0.32;0.32;;;;;;;15.95;100.00;100525.78;7394213;19;20050;-59
2022/08/05 08:53:35;;;;;;;0.30;0.10;;;;;;;16.04;100.00;100527.63;7394446;19;20025;-58
2022/08/05 08:56:03;;;;;;;0.10;0.10;;;;;;;15.98;100.00;100524.78;7393739;19;20737;-58
2022/08/05 08:58:29;;;;;;;0.57;0.57;;;;;;;15.79;100.00;100523.56;7391785;19;20021;-58
2022/08/05 09:00:56;;;;;;;0.10;0.10;;;;;;;15.75;100.00;100525.81;7393548;19;20007;-58
2022/08/05 09:03:23;;;;;;;0.38;0.20;;;;;;;15.71;100.00;100528.84;7391122;19;20031;-58
2022/08/05 09:05:50;;;;;;;0.55;0.35;;;;;;;15.72;100.00;100527.56;7392455;19;20022;-58
2022/08/05 09:08:17;;;;;;;0.20;0.20;;;;;;;15.64;100.00;100529.28;7395064;19;20010;-58
2022/08/05 09:10:44;;;;;;;0.98;0.25;;;;;;;15.41;100.00;100523.88;7393351;19;20108;-58
2022/08/05 09:13:14;;;;;;;0.40;0.20;;;;;;;15.22;100.00;100531.81;7392688;19;20422;-58
2022/08/05 09:15:40;;;;;;;5.85;0.50;;;;;;;15.04;100.00;100532.88;7392255;19;20709;-58
2022/08/05 09:18:08;;;;;;;1.55;0.35;;;;;;;14.96;100.00;100533.78;7396077;19;20658;-58
2022/08/05 09:20:36;;;;;;;0.80;0.40;;;;;;;14.91;100.00;100532.44;7392959;19;20014;-58
2022/08/05 09:23:14;;;;;;;1.20;0.35;;;;;;;14.80;100.00;100540.69;7389193;19;20015;-59
2022/08/05 09:25:42;;;;;;;0.10;0.10;;;;;;;14.72;100.00;100542.38;7390925;19;20179;-59
2022/08/05 09:28:15;;;;;;;0.13;0.13;;;;;;;14.73;100.00;100543.88;7392486;19;20015;-59
2022/08/05 09:31:03;;;;;;;8.55;0.35;;;;;;;14.80;100.00;100540.69;7392210;19;20040;-59
2022/08/05 09:33:30;;;;;;;1.65;0.60;;;;;;;14.89;100.00;100537.75;7392300;19;20587;-59
2022/08/05 09:36:02;;;;;;;0.30;0.10;;;;;;;15.05;100.00;100540.00;7392979;19;20456;-59
2022/08/05 09:38:28;;;;;;;0.93;0.17;;;;;;;15.23;100.00;100533.34;7389508;19;20045;-60
2022/08/05 09:41:03;;;;;;;0.40;0.10;;;;;;;15.35;100.00;100551.91;7392167;19;20014;-59
2022/08/05 09:43:34;;;;;;;0.10;0.00;;;;;;;15.38;100.00;100550.13;7391764;19;20049;-60
2022/08/05 09:46:10;;;;;;;3.92;0.50;;;;;;;15.28;100.00;100549.50;7390605;19;20028;-58
2022/08/05 09:48:37;;;;;;;0.85;0.60;;;;;;;15.11;100.00;100548.50;7389488;19;20011;-59
2022/08/05 09:51:08;;;;;;;0.40;0.32;;;;;;;14.99;100.00;100547.59;7389653;19;20873;-58
2022/08/05 09:53:51;;;;;;;0.68;0.30;;;;;;;14.78;100.00;100551.63;7390149;19;20482;-58
2022/08/05 09:56:25;;;;;;;0.32;0.20;;;;;;;14.58;100.00;100537.53;7390579;19;20014;-59
2022/08/05 09:59:08;;;;;;;0.15;0.15;;;;;;;14.75;100.00;100544.16;7387447;19;20482;-57
2022/08/05 10:01:38;;;;;;;8.50;0.40;;;;;;;15.03;100.00;100548.16;7391202;19;20042;-59
2022/08/05 10:04:12;;;;;;;3.90;0.32;;;;;;;15.39;100.00;100546.84;7391162;19;20033;-59
2022/08/05 10:06:41;;;;;;;0.93;0.30;;;;;;;15.83;100.00;100540.97;7392999;19;20021;-59
2022/08/05 10:09:11;;;;;;;2.45;0.47;;;;;;;16.41;100.00;100539.72;7394456;19;20379;-59
2022/08/05 10:11:39;;;;;;;3.30;0.20;;;;;;;17.02;100.00;100537.34;7391713;19;20449;-59
2022/08/05 10:14:26;;;;;;;0.65;0.30;;;;;;;16.90;100.00;100532.91;7390412;19;20491;-58
2022/08/05 10:16:57;;;;;;;1.40;0.20;;;;;;;16.55;100.00;100533.97;7390608;19;20367;-57
2022/08/05 10:19:25;;;;;;;1.25;0.25;;;;;;;16.22;100.00;100544.91;7389924;19;20010;-57
2022/08/05 10:21:52;;;;;;;0.20;0.10;;;;;;;15.99;100.00;100533.97;7391732;19;20054;-57
2022/08/05 10:24:19;;;;;;;1.88;0.32;;;;;;;15.90;100.00;100546.13;7390896;19;20014;-58
2022/08/05 10:26:47;;;;;;;3.95;0.88;;;;;;;15.86;100.00;100543.56;7391978;19;20088;-57
2022/08/05 10:29:14;;;;;;;1.17;0.30;;;;;;;15.72;100.00;100546.47;7390053;19;20455;-58
2022/08/05 10:31:40;;;;;;;0.43;0.20;;;;;;;15.44;100.00;100554.56;7390074;19;20022;-57
2022/08/05 10:34:08;;;;;;;0.30;0.20;;;;;;;15.43;100.00;100555.03;7389715;19;20070;-57
2022/08/05 10:36:40;;;;;;;0.28;0.13;;;;;;;15.66;100.00;100548.44;7389253;19;20035;-58
2022/08/05 10:39:17;;;;;;;0.20;0.20;;;;;;;15.95;100.00;100559.47;7387940;19;20028;-58
2022/08/05 10:42:13;;;;;;;1.90;0.60;;;;;;;16.30;100.00;100550.88;7391646;19;20018;-58
2022/08/05 10:44:44;;;;;;;0.10;0.10;;;;;;;16.52;100.00;100551.09;7389188;19;20010;-59
2022/08/05 10:47:12;;;;;;;0.80;0.22;;;;;;;16.85;100.00;100547.75;7391439;19;20091;-58
2022/08/05 10:50:06;;;;;;;0.70;0.35;;;;;;;17.28;100.00;100543.63;7389269;19;20013;-58
2022/08/05 10:52:41;;;;;;;0.28;0.17;;;;;;;17.51;100.00;100538.84;7386317;19;20022;-59
2022/08/05 10:55:13;;;;;;;0.88;0.20;;;;;;;17.33;100.00;100540.81;7387276;19;20007;-58
2022/08/05 10:57:44;;;;;;;0.10;0.00;;;;;;;16.93;100.00;100541.13;7391581;19;20104;-58
2022/08/05 11:00:21;;;;;;;3.40;0.55;;;;;;;16.39;100.00;100559.91;7389270;19;20422;-58
2022/08/05 11:03:02;;;;;;;1.05;0.32;;;;;;;15.98;100.00;100561.31;7388359;19;20021;-60
2022/08/05 11:05:29;;;;;;;1.70;0.55;;;;;;;15.61;100.00;100563.19;7388790;19;20014;-60
2022/08/05 11:07:59;;;;;;;1.65;0.63;;;;;;;15.71;100.00;100556.94;7391911;19;20015;-65
2022/08/05 11:10:26;;;;;;;0.90;0.35;;;;;;;15.69;100.00;100565.09;7385733;19;20007;-64
2022/08/05 11:12:53;;;;;;;1.17;0.10;;;;;;;15.63;100.00;100560.66;7392373;19;20025;-59
2022/08/05 11:15:22;;;;;;;1.52;0.43;;;;;;;16.07;100.00;100558.31;7391816;19;20011;-59
2022/08/05 11:17:49;;;;;;;1.92;0.50;;;;;;;16.63;100.00;100557.53;7390498;19;20003;-59
2022/08/05 11:20:31;;;;;;;0.60;0.30;;;;;;;17.16;100.00;100553.28;7387305;19;20828;-58
2022/08/05 11:22:57;;;;;;;0.35;0.10;;;;;;;17.69;100.00;100567.38;7387497;19;20066;-59
2022/08/05 11:25:36;;;;;;;0.30;0.13;;;;;;;18.17;100.00;100551.03;7386612;19;20010;-57
2022/08/05 11:28:22;;;;;;;0.95;0.10;;;;;;;18.56;100.00;100565.19;7390098;19;20342;-58
2022/08/05 11:30:54;;;;;;;0.35;0.10;;;;;;;18.49;100.00;100562.91;7384929;19;20014;-57